Time;durP1;ratioP1;P1;durP2;ratioP2;P2;SDS_P1;SDS_P2;PMS_P1;PMS_P2;Temp;Humidity;BMP_temperature;BMP_pressure;BME280_temperature;BME280_humidity;BME280_pressure;Samples;Min_cycle;Max_cycle;Signal;HPM_P1;HPM_P2
2024/01/29 04:00:39;;;;;;;9.93;4.90;;;4.00;99.90;;;;;;6181027;22;20020;-75
2024/01/29 04:03:06;;;;;;;9.60;5.30;;;4.00;99.90;;;;;;6186996;23;20017;-82
2024/01/29 04:05:32;;;;;;;9.43;5.32;;;3.90;99.90;;;;;;6160226;23;20040;-81
2024/01/29 04:07:57;;;;;;;11.70;4.78;;;3.90;99.90;;;;;;6186739;23;20013;-80
2024/01/29 04:10:23;;;;;;;11.13;5.30;;;3.90;99.90;;;;;;6162803;23;20024;-81
2024/01/29 04:12:49;;;;;;;11.68;5.22;;;4.00;99.90;;;;;;6216487;23;20024;-80
2024/01/29 04:15:15;;;;;;;10.27;5.20;;;3.90;99.90;;;;;;6216849;23;20019;-82
2024/01/29 04:17:41;;;;;;;10.90;5.57;;;3.90;99.90;;;;;;6189754;23;20334;-79
2024/01/29 04:20:07;;;;;;;11.15;5.28;;;4.00;99.90;;;;;;6216480;23;20008;-82
2024/01/29 04:22:33;;;;;;;10.40;5.30;;;4.00;99.90;;;;;;6216532;23;20090;-83
2024/01/29 04:25:04;;;;;;;8.98;4.80;;;4.00;99.90;;;;;;6189868;23;20017;-81
2024/01/29 04:27:30;;;;;;;10.30;5.50;;;4.10;99.90;;;;;;6189808;23;20016;-82
2024/01/29 04:29:56;;;;;;;13.52;6.07;;;4.10;99.90;;;;;;6189830;23;20018;-82
2024/01/29 04:32:21;;;;;;;9.75;5.30;;;4.10;99.90;;;;;;6189647;23;20040;-80
2024/01/29 04:34:47;;;;;;;10.32;5.40;;;4.10;99.90;;;;;;6189658;23;20013;-81
2024/01/29 04:37:14;;;;;;;10.18;5.25;;;4.10;99.90;;;;;;6216266;23;20013;-82
2024/01/29 04:39:40;;;;;;;9.30;5.03;;;4.10;99.90;;;;;;6217005;23;20314;-80
2024/01/29 04:42:06;;;;;;;9.45;5.00;;;4.10;99.90;;;;;;6216400;23;20117;-81
2024/01/29 04:44:32;;;;;;;11.02;5.40;;;4.10;99.90;;;;;;6189815;23;20021;-82
2024/01/29 04:47:00;;;;;;;10.35;5.65;;;4.10;99.90;;;;;;6216622;23;20070;-82
2024/01/29 04:49:26;;;;;;;10.98;5.50;;;4.10;99.90;;;;;;6189760;23;20043;-81
2024/01/29 04:51:52;;;;;;;8.38;4.93;;;4.10;99.90;;;;;;6216200;23;20383;-80
2024/01/29 04:54:18;;;;;;;12.60;5.93;;;4.10;99.90;;;;;;6189648;23;20047;-79
2024/01/29 04:56:44;;;;;;;11.13;5.70;;;4.10;99.90;;;;;;6216273;23;20504;-82
2024/01/29 04:59:09;;;;;;;9.82;5.40;;;4.10;99.90;;;;;;6189719;23;20036;-81
2024/01/29 05:01:35;;;;;;;9.70;5.72;;;4.00;99.90;;;;;;6216089;23;20020;-81
2024/01/29 05:04:01;;;;;;;10.50;5.40;;;4.00;99.90;;;;;;6189579;23;20021;-83
2024/01/29 05:06:27;;;;;;;9.57;5.80;;;4.00;99.90;;;;;;6189535;23;20016;-81
2024/01/29 05:08:52;;;;;;;10.70;5.85;;;4.00;99.90;;;;;;6189582;23;20051;-82
2024/01/29 05:11:18;;;;;;;9.90;5.60;;;4.00;99.90;;;;;;6215905;23;20019;-81
2024/01/29 05:13:44;;;;;;;10.68;5.40;;;4.00;99.90;;;;;;6216079;23;20048;-80
2024/01/29 05:16:13;;;;;;;10.93;5.20;;;4.00;99.90;;;;;;6216397;23;20008;-81
2024/01/29 05:18:39;;;;;;;11.27;5.47;;;4.00;99.90;;;;;;6189578;23;20009;-81
2024/01/29 05:21:06;;;;;;;10.20;5.32;;;4.00;99.90;;;;;;6189286;23;20028;-81
2024/01/29 05:23:31;;;;;;;11.00;4.75;;;4.00;99.90;;;;;;6189443;23;20029;-80
2024/01/29 05:25:57;;;;;;;9.95;5.15;;;4.00;99.90;;;;;;6189482;23;20075;-82
2024/01/29 05:28:22;;;;;;;13.15;5.40;;;4.00;99.90;;;;;;6189570;23;20021;-80
2024/01/29 05:30:51;;;;;;;9.80;5.72;;;4.00;99.90;;;;;;6189786;23;20017;-82
2024/01/29 05:33:17;;;;;;;10.57;5.43;;;4.00;99.90;;;;;;6215965;23;20012;-80
2024/01/29 05:35:53;;;;;;;;;;;;;;;;;;;;;
2024/01/29 05:38:19;;;;;;;12.57;5.57;;;4.00;99.90;;;;;;6188733;23;20013;-81
2024/01/29 05:40:45;;;;;;;10.30;5.72;;;4.00;99.90;;;;;;6216032;23;20062;-80
2024/01/29 05:43:10;;;;;;;10.48;5.45;;;4.00;99.90;;;;;;6190274;23;20012;-80
2024/01/29 05:45:36;;;;;;;11.23;5.45;;;4.00;99.90;;;;;;6216733;23;20016;-81
2024/01/29 05:48:04;;;;;;;9.02;5.18;;;4.10;99.90;;;;;;6216042;23;20515;-81
2024/01/29 05:50:29;;;;;;;9.73;5.97;;;4.10;99.90;;;;;;6216444;23;20042;-81
2024/01/29 05:52:55;;;;;;;11.23;5.90;;;4.10;99.90;;;;;;6216532;23;20430;-81
2024/01/29 05:55:21;;;;;;;10.50;5.68;;;4.10;99.90;;;;;;6189456;23;20017;-81
2024/01/29 05:57:46;;;;;;;10.02;5.85;;;4.10;99.90;;;;;;6215686;23;20012;-80
2024/01/29 06:00:12;;;;;;;12.18;6.03;;;4.10;99.90;;;;;;6215993;23;20024;-81
2024/01/29 06:02:42;;;;;;;10.10;5.70;;;4.10;99.90;;;;;;6215675;23;20012;-81
2024/01/29 06:05:10;;;;;;;13.77;5.78;;;4.10;99.90;;;;;;6216204;23;20023;-80
2024/01/29 06:07:36;;;;;;;13.48;6.22;;;4.10;99.90;;;;;;6216552;23;20102;-81
2024/01/29 06:10:01;;;;;;;8.82;5.40;;;4.10;99.90;;;;;;6191182;23;20048;-80
2024/01/29 06:12:27;;;;;;;10.10;5.75;;;4.10;99.90;;;;;;6190780;23;20412;-80
2024/01/29 06:14:53;;;;;;;16.75;6.22;;;4.10;99.90;;;;;;6218092;23;20021;-81
2024/01/29 06:17:18;;;;;;;16.45;6.93;;;4.10;99.90;;;;;;6191474;23;20063;-81
2024/01/29 06:19:44;;;;;;;13.55;6.13;;;4.00;99.90;;;;;;6218179;23;20067;-81
2024/01/29 06:22:09;;;;;;;10.55;5.80;;;4.00;99.90;;;;;;6190993;23;20020;-79
2024/01/29 06:24:36;;;;;;;13.55;6.28;;;4.00;99.90;;;;;;6217739;23;20395;-81
2024/01/29 06:27:01;;;;;;;11.02;5.88;;;3.90;99.90;;;;;;6192049;23;20440;-81
2024/01/29 06:29:27;;;;;;;12.57;6.50;;;3.90;99.90;;;;;;6218212;23;20036;-81
2024/01/29 06:31:53;;;;;;;12.90;6.95;;;3.80;99.90;;;;;;6191264;23;20319;-82
2024/01/29 06:34:18;;;;;;;11.60;5.97;;;3.80;99.90;;;;;;6166362;23;20016;-81
2024/01/29 06:36:44;;;;;;;10.48;5.82;;;3.80;99.90;;;;;;6190945;23;20454;-81
2024/01/29 06:39:11;;;;;;;11.00;6.32;;;3.80;99.90;;;;;;6217798;23;20008;-80
2024/01/29 06:41:36;;;;;;;13.60;6.40;;;3.80;99.90;;;;;;6217501;23;20316;-78
2024/01/29 06:44:02;;;;;;;14.38;6.63;;;3.70;99.90;;;;;;6191227;23;20023;-79
2024/01/29 06:46:28;;;;;;;11.52;6.15;;;3.70;99.90;;;;;;6218006;23;20442;-80
2024/01/29 06:48:53;;;;;;;12.20;6.32;;;3.70;99.90;;;;;;6191013;23;20021;-80
2024/01/29 06:51:20;;;;;;;11.65;6.20;;;3.70;99.90;;;;;;6190820;23;20013;-79
2024/01/29 06:53:46;;;;;;;11.35;6.60;;;3.70;99.90;;;;;;6191036;23;20446;-80
2024/01/29 06:56:11;;;;;;;12.45;6.07;;;3.70;99.90;;;;;;6217996;23;20012;-79
2024/01/29 06:58:37;;;;;;;18.63;6.30;;;3.70;99.90;;;;;;6191179;23;20020;-79
2024/01/29 07:01:04;;;;;;;11.75;7.03;;;3.70;99.90;;;;;;6191550;23;20350;-80
2024/01/29 07:03:29;;;;;;;12.30;6.63;;;3.70;99.90;;;;;;6243374;23;20000;-79
2024/01/29 07:05:57;;;;;;;12.73;6.63;;;3.70;99.90;;;;;;6217690;23;20023;-80
2024/01/29 07:08:23;;;;;;;11.57;6.50;;;3.70;99.90;;;;;;6218148;23;20009;-79
2024/01/29 07:10:49;;;;;;;15.95;6.90;;;3.70;99.90;;;;;;6190751;23;20488;-80
2024/01/29 07:13:15;;;;;;;10.43;6.38;;;3.70;99.90;;;;;;6217549;23;20079;-82
2024/01/29 07:15:42;;;;;;;14.20;6.63;;;3.70;99.90;;;;;;6190997;23;20023;-81
2024/01/29 07:18:08;;;;;;;11.80;6.45;;;3.70;99.90;;;;;;6190889;23;20012;-79
2024/01/29 07:20:42;;;;;;;14.88;6.35;;;3.70;99.90;;;;;;6217617;23;20051;-80
2024/01/29 07:23:09;;;;;;;13.95;6.93;;;3.70;99.90;;;;;;6190729;23;20104;-79
2024/01/29 07:25:35;;;;;;;13.35;7.15;;;3.70;99.90;;;;;;6190672;23;20074;-80
2024/01/29 07:28:03;;;;;;;13.40;7.18;;;3.70;99.90;;;;;;6217469;23;20020;-80
2024/01/29 07:30:29;;;;;;;13.82;7.10;;;3.80;99.90;;;;;;6217229;23;20081;-80
2024/01/29 07:32:56;;;;;;;12.15;6.97;;;3.70;99.90;;;;;;6190496;23;20028;-81
2024/01/29 07:35:22;;;;;;;14.02;7.57;;;3.80;99.90;;;;;;6189859;23;20024;-80
2024/01/29 07:37:47;;;;;;;12.55;7.45;;;3.80;99.90;;;;;;6190382;23;20013;-81
2024/01/29 07:40:14;;;;;;;13.32;6.72;;;3.90;99.90;;;;;;6217119;23;20009;-80
2024/01/29 07:42:40;;;;;;;11.63;6.82;;;3.90;99.90;;;;;;6190424;23;20012;-81
2024/01/29 07:45:06;;;;;;;16.95;7.28;;;3.90;99.90;;;;;;6216935;23;20457;-80
2024/01/29 07:47:31;;;;;;;14.13;7.68;;;3.90;99.90;;;;;;6190663;23;20453;-80
2024/01/29 07:49:57;;;;;;;13.63;7.68;;;3.90;99.90;;;;;;6217371;23;20016;-81
2024/01/29 07:52:23;;;;;;;14.57;7.47;;;4.00;99.90;;;;;;6217876;23;20017;-80
2024/01/29 07:54:48;;;;;;;16.75;7.28;;;4.00;99.90;;;;;;6190688;23;20022;-80
2024/01/29 07:57:14;;;;;;;19.75;8.65;;;4.00;99.90;;;;;;6190487;23;20107;-82
2024/01/29 07:59:40;;;;;;;15.23;8.30;;;4.10;99.90;;;;;;6217394;23;20085;-82
2024/01/29 08:02:07;;;;;;;20.08;9.32;;;4.10;99.90;;;;;;6168043;23;20327;-82
2024/01/29 08:04:33;;;;;;;21.00;9.32;;;4.10;99.90;;;;;;6186995;23;20048;-81
2024/01/29 08:06:59;;;;;;;17.73;8.75;;;4.30;99.90;;;;;;6186559;23;20009;-83
2024/01/29 08:09:26;;;;;;;19.48;9.27;;;4.30;99.90;;;;;;6160415;23;20329;-82
2024/01/29 08:11:52;;;;;;;21.98;9.45;;;4.40;99.90;;;;;;6160174;23;20399;-82
2024/01/29 08:14:18;;;;;;;18.60;9.35;;;4.40;99.90;;;;;;6135974;23;20024;-81
2024/01/29 08:16:43;;;;;;;19.38;8.93;;;4.50;99.90;;;;;;6186705;23;20449;-81
2024/01/29 08:19:09;;;;;;;14.88;7.65;;;4.60;99.90;;;;;;6186616;23;20009;-81
2024/01/29 08:21:35;;;;;;;15.95;8.43;;;4.70;99.90;;;;;;6186746;23;20413;-82
2024/01/29 08:24:04;;;;;;;16.55;8.55;;;4.80;99.90;;;;;;6160235;23;20103;-83
2024/01/29 08:26:30;;;;;;;15.07;8.30;;;4.90;99.90;;;;;;6186763;23;20335;-81
2024/01/29 08:28:57;;;;;;;12.45;7.40;;;4.90;99.90;;;;;;6186862;23;20439;-82
2024/01/29 08:31:25;;;;;;;15.02;8.10;;;5.00;99.90;;;;;;6186189;23;20124;-83
2024/01/29 08:33:51;;;;;;;14.82;7.53;;;5.00;99.90;;;;;;6160858;23;20013;-82
2024/01/29 08:36:20;;;;;;;13.57;7.20;;;5.10;99.90;;;;;;6186954;23;20297;-82
2024/01/29 08:38:46;;;;;;;12.95;7.18;;;5.20;99.90;;;;;;6135398;23;20013;-83
2024/01/29 08:41:13;;;;;;;12.60;7.22;;;5.30;99.90;;;;;;6186442;23;20469;-81
2024/01/29 08:43:39;;;;;;;15.82;7.95;;;5.40;99.90;;;;;;6185037;23;20012;-82
2024/01/29 08:46:05;;;;;;;14.80;8.10;;;5.50;99.90;;;;;;6160486;23;20017;-82
2024/01/29 08:48:31;;;;;;;17.55;8.95;;;5.50;99.90;;;;;;6186252;23;20439;-82
2024/01/29 08:50:58;;;;;;;13.88;8.02;;;5.50;99.90;;;;;;6186352;23;20013;-82
2024/01/29 08:53:25;;;;;;;16.30;7.90;;;5.50;99.90;;;;;;6160075;23;20343;-82
2024/01/29 08:55:50;;;;;;;17.73;8.52;;;5.60;99.90;;;;;;6186176;23;20079;-82
2024/01/29 08:58:16;;;;;;;17.00;8.70;;;5.60;99.90;;;;;;6186433;23;20036;-82
2024/01/29 09:00:42;;;;;;;17.80;9.15;;;5.70;99.90;;;;;;6139782;23;20028;-82
2024/01/29 09:03:09;;;;;;;20.42;10.23;;;5.80;99.90;;;;;;6216600;23;20051;-82
2024/01/29 09:05:38;;;;;;;20.67;10.07;;;5.80;99.90;;;;;;6189737;23;20403;-83
2024/01/29 09:08:05;;;;;;;23.98;10.00;;;5.90;99.90;;;;;;6216383;23;20012;-83
2024/01/29 09:10:30;;;;;;;23.95;11.07;;;6.10;99.90;;;;;;6189586;23;20056;-82
2024/01/29 09:12:56;;;;;;;25.92;11.20;;;6.30;99.90;;;;;;6216002;23;20031;-82
2024/01/29 09:15:22;;;;;;;18.40;10.73;;;6.50;99.90;;;;;;6189886;23;20015;-82
2024/01/29 09:17:47;;;;;;;23.25;10.68;;;6.60;99.90;;;;;;6189489;23;20051;-83
2024/01/29 09:20:13;;;;;;;23.30;10.55;;;6.70;99.90;;;;;;6216287;23;20016;-82
2024/01/29 09:22:39;;;;;;;22.15;9.70;;;6.80;99.90;;;;;;6189311;23;20020;-82
2024/01/29 09:25:06;;;;;;;20.63;9.98;;;6.90;99.90;;;;;;6215894;23;20016;-81
2024/01/29 09:27:32;;;;;;;19.40;9.45;;;6.90;99.90;;;;;;6216458;23;20016;-83
2024/01/29 09:29:58;;;;;;;19.10;9.73;;;6.90;99.90;;;;;;6164714;23;20019;-82
2024/01/29 09:32:23;;;;;;;14.85;9.07;;;6.90;99.90;;;;;;6189199;23;20017;-82
2024/01/29 09:34:49;;;;;;;20.02;9.57;;;7.10;99.90;;;;;;6189564;23;20047;-81
2024/01/29 09:37:18;;;;;;;15.20;8.73;;;7.10;99.90;;;;;;6216215;23;20369;-82
2024/01/29 09:39:43;;;;;;;19.52;9.85;;;7.10;99.90;;;;;;6189224;23;20012;-81
2024/01/29 09:42:16;;;;;;;17.70;8.82;;;7.00;99.90;;;;;;6189392;23;20142;-83
2024/01/29 09:44:41;;;;;;;18.48;8.07;;;7.00;99.90;;;;;;6216265;23;20020;-83
2024/01/29 09:47:07;;;;;;;19.92;8.75;;;7.00;99.90;;;;;;6164624;23;20013;-82
2024/01/29 09:49:37;;;;;;;16.48;8.27;;;7.10;99.90;;;;;;6189517;23;20017;-83
2024/01/29 09:52:04;;;;;;;13.85;7.82;;;7.20;99.90;;;;;;6164252;23;20091;-83
2024/01/29 09:54:31;;;;;;;15.48;7.88;;;7.40;99.90;;;;;;6217248;23;20008;-83
2024/01/29 09:56:57;;;;;;;14.40;7.70;;;7.50;99.90;;;;;;6215567;23;20013;-82
2024/01/29 09:59:23;;;;;;;14.35;7.78;;;7.40;99.90;;;;;;6190078;23;20008;-82
2024/01/29 10:01:49;;;;;;;12.77;7.95;;;7.40;99.90;;;;;;6216569;23;20020;-83
2024/01/29 10:04:15;;;;;;;12.85;8.30;;;7.30;99.90;;;;;;6216397;23;20017;-81
2024/01/29 10:06:41;;;;;;;15.45;7.45;;;7.30;99.90;;;;;;6189820;23;20369;-82
2024/01/29 10:09:08;;;;;;;16.13;8.63;;;7.50;99.90;;;;;;6215801;23;20024;-83
2024/01/29 10:11:36;;;;;;;16.38;8.30;;;7.70;99.90;;;;;;6215898;23;20015;-82
2024/01/29 10:14:02;;;;;;;18.67;8.55;;;7.90;99.90;;;;;;6216253;23;20009;-82
2024/01/29 10:16:28;;;;;;;17.70;8.73;;;8.10;99.90;;;;;;6189236;23;20061;-83
2024/01/29 10:19:01;;;;;;;13.75;8.80;;;8.30;99.90;;;;;;6216001;23;20004;-82
2024/01/29 10:21:31;;;;;;;13.95;8.27;;;8.40;99.90;;;;;;6215733;23;20099;-83
2024/01/29 10:23:58;;;;;;;17.60;8.77;;;8.50;99.90;;;;;;6215701;23;20013;-82
2024/01/29 10:26:25;;;;;;;14.50;8.77;;;8.70;99.90;;;;;;6216057;23;20012;-82
2024/01/29 10:29:05;;;;;;;15.15;8.70;;;8.80;99.90;;;;;;6215735;23;20017;-82
2024/01/29 10:31:31;;;;;;;15.05;8.63;;;8.90;99.90;;;;;;6205278;23;20016;-83
2024/01/29 10:34:01;;;;;;;15.27;8.52;;;8.80;99.90;;;;;;6213887;23;20404;-81
2024/01/29 10:36:27;;;;;;;13.45;8.45;;;8.80;99.90;;;;;;6198699;23;20079;-83
2024/01/29 10:38:53;;;;;;;16.63;8.70;;;8.70;99.90;;;;;;6190193;23;20055;-82
2024/01/29 10:41:21;;;;;;;15.18;8.52;;;8.70;99.90;;;;;;6164192;23;20502;-82
2024/01/29 10:43:54;;;;;;;13.50;8.32;;;8.60;99.90;;;;;;6215547;23;20017;-83
2024/01/29 10:46:21;;;;;;;18.10;9.88;;;8.60;99.90;;;;;;6216202;23;20080;-82
2024/01/29 10:48:51;;;;;;;17.27;9.35;;;8.40;99.90;;;;;;6215455;23;20012;-83
2024/01/29 10:51:19;;;;;;;16.42;9.27;;;8.30;99.90;;;;;;6215761;23;20059;-83
2024/01/29 10:53:47;;;;;;;18.20;9.55;;;8.10;99.90;;;;;;6216016;23;20434;-83
2024/01/29 10:56:16;;;;;;;17.77;9.82;;;8.00;99.90;;;;;;6190519;23;20173;-81
2024/01/29 10:58:42;;;;;;;17.02;9.23;;;7.80;99.90;;;;;;6218213;23;20022;-82
2024/01/29 11:01:10;;;;;;;17.02;9.70;;;7.70;99.90;;;;;;6217199;23;20449;-83
2024/01/29 11:03:37;;;;;;;16.63;9.73;;;7.70;99.90;;;;;;6215936;23;20092;-83
2024/01/29 11:06:06;;;;;;;16.88;9.50;;;7.60;99.90;;;;;;6190930;23;20008;-82
2024/01/29 11:08:35;;;;;;;17.77;9.75;;;7.60;99.90;;;;;;6218308;23;20311;-82
2024/01/29 11:11:02;;;;;;;20.08;11.27;;;7.60;99.90;;;;;;6225362;23;20004;-82
2024/01/29 11:13:29;;;;;;;20.73;10.48;;;7.60;99.90;;;;;;6199351;23;20013;-83
2024/01/29 11:15:55;;;;;;;21.00;10.63;;;7.60;99.90;;;;;;6233181;23;20023;-82
2024/01/29 11:18:21;;;;;;;20.90;10.27;;;7.60;99.90;;;;;;6241127;23;19997;-82
2024/01/29 11:20:50;;;;;;;18.52;10.75;;;7.60;99.90;;;;;;6224622;23;20016;-82
2024/01/29 11:23:20;;;;;;;17.40;9.90;;;7.60;99.90;;;;;;6218952;23;20104;-81
2024/01/29 11:25:49;;;;;;;18.17;10.15;;;7.60;99.90;;;;;;6191637;23;20043;-83
2024/01/29 11:28:15;;;;;;;17.20;10.32;;;7.60;99.90;;;;;;6192671;23;20044;-81
2024/01/29 11:30:49;;;;;;;19.42;9.30;;;7.60;99.90;;;;;;6218027;23;20385;-82
2024/01/29 11:33:17;;;;;;;21.75;10.30;;;7.60;99.90;;;;;;6219272;23;20496;-82
2024/01/29 11:35:45;;;;;;;20.38;11.75;;;7.60;99.90;;;;;;6221845;23;20016;-81
2024/01/29 11:38:12;;;;;;;18.15;10.05;;;7.70;99.90;;;;;;6219118;23;20060;-82
2024/01/29 11:40:40;;;;;;;18.08;10.43;;;7.60;99.90;;;;;;6190938;23;20089;-82
2024/01/29 11:43:22;;;;;;;16.08;10.32;;;7.70;99.90;;;;;;6218632;23;20036;-82
2024/01/29 11:45:50;;;;;;;17.70;10.55;;;7.70;99.90;;;;;;6217313;23;20013;-81
2024/01/29 11:48:18;;;;;;;16.85;10.18;;;7.70;99.90;;;;;;6217433;23;20008;-82
2024/01/29 11:50:49;;;;;;;18.73;10.73;;;7.60;99.90;;;;;;6217736;23;20015;-81
2024/01/29 11:53:16;;;;;;;18.33;10.63;;;7.70;99.90;;;;;;6190556;23;20016;-81
2024/01/29 11:55:43;;;;;;;22.02;10.35;;;7.70;99.90;;;;;;6190417;23;20013;-82
2024/01/29 11:58:13;;;;;;;21.55;11.60;;;7.70;99.90;;;;;;6217268;23;20008;-82
2024/01/29 12:00:43;;;;;;;23.30;11.85;;;7.70;99.90;;;;;;6217026;23;20017;-83
2024/01/29 12:03:11;;;;;;;24.55;11.98;;;7.80;99.90;;;;;;6217376;23;20013;-82
2024/01/29 12:05:38;;;;;;;23.83;12.93;;;7.80;99.90;;;;;;6217370;23;20017;-81
2024/01/29 12:08:17;;;;;;;25.33;13.27;;;7.80;99.90;;;;;;6216271;23;20028;-81
2024/01/29 12:10:44;;;;;;;25.17;13.25;;;7.90;99.90;;;;;;6190387;23;20071;-82
2024/01/29 12:13:14;;;;;;;27.25;13.95;;;7.90;99.90;;;;;;6217454;23;20016;-82
2024/01/29 12:15:40;;;;;;;29.38;13.95;;;7.90;99.90;;;;;;6217205;23;20432;-82
2024/01/29 12:18:12;;;;;;;29.20;13.88;;;8.00;99.90;;;;;;6217679;23;20012;-84
2024/01/29 12:20:38;;;;;;;27.30;13.95;;;8.00;99.90;;;;;;6216086;23;20013;-83
2024/01/29 12:23:04;;;;;;;25.55;13.27;;;8.10;99.90;;;;;;6190573;23;20023;-83
2024/01/29 12:25:30;;;;;;;25.20;13.70;;;8.20;99.90;;;;;;6217611;23;20087;-82
2024/01/29 12:28:03;;;;;;;22.92;13.30;;;8.20;99.90;;;;;;6217414;23;20101;-83
2024/01/29 12:30:29;;;;;;;22.80;11.68;;;8.30;99.90;;;;;;6190667;23;20016;-82
2024/01/29 12:32:55;;;;;;;23.13;12.25;;;8.30;99.90;;;;;;6217461;23;20015;-82
2024/01/29 12:35:28;;;;;;;23.55;11.80;;;8.30;99.90;;;;;;6190418;23;20099;-82
2024/01/29 12:38:07;;;;;;;20.40;11.60;;;8.30;99.90;;;;;;6217301;23;20043;-82
2024/01/29 12:40:36;;;;;;;21.58;12.05;;;8.40;99.90;;;;;;6217184;23;20013;-82
2024/01/29 12:43:03;;;;;;;23.80;12.43;;;8.40;99.90;;;;;;6215949;23;20012;-83
2024/01/29 12:45:29;;;;;;;20.35;11.93;;;8.40;99.90;;;;;;6217083;23;20086;-82
2024/01/29 12:48:19;;;;;;;25.25;12.77;;;8.40;99.90;;;;;;6190105;23;20327;-82
2024/01/29 12:50:45;;;;;;;20.77;12.35;;;8.40;99.90;;;;;;6190987;23;20013;-83
2024/01/29 12:53:11;;;;;;;20.88;11.57;;;8.40;99.90;;;;;;6216749;23;20027;-82
2024/01/29 12:55:40;;;;;;;17.92;11.18;;;8.40;99.90;;;;;;6216687;23;20066;-82
2024/01/29 12:58:07;;;;;;;18.20;10.93;;;8.50;99.90;;;;;;6216502;23;20013;-83
2024/01/29 13:00:32;;;;;;;17.02;11.02;;;8.50;99.90;;;;;;6189578;23;20080;-83
2024/01/29 13:02:58;;;;;;;20.23;11.57;;;8.50;99.90;;;;;;6189905;23;20016;-83
2024/01/29 13:05:24;;;;;;;19.95;11.57;;;8.50;99.90;;;;;;6217110;23;20013;-84
2024/01/29 13:07:49;;;;;;;20.73;11.32;;;8.60;99.90;;;;;;6189938;23;20016;-84
2024/01/29 13:10:15;;;;;;;19.95;11.70;;;8.60;99.90;;;;;;6216578;23;20369;-82
2024/01/29 13:12:41;;;;;;;21.40;11.60;;;8.60;99.90;;;;;;6216064;23;20009;-82
2024/01/29 13:15:09;;;;;;;22.48;11.57;;;8.70;99.90;;;;;;6216574;23;20023;-82
2024/01/29 13:17:36;;;;;;;19.23;11.30;;;8.70;99.90;;;;;;6215844;23;20434;-83
2024/01/29 13:20:10;;;;;;;19.55;12.27;;;8.80;99.90;;;;;;6216238;23;20016;-83
2024/01/29 13:22:37;;;;;;;20.25;10.90;;;8.80;99.90;;;;;;6189696;23;20020;-83
2024/01/29 13:25:03;;;;;;;17.02;10.77;;;8.80;99.90;;;;;;6189517;23;20088;-82
2024/01/29 13:27:29;;;;;;;17.98;11.00;;;8.90;99.90;;;;;;6189565;23;20021;-83
2024/01/29 13:29:55;;;;;;;21.05;12.30;;;8.90;99.90;;;;;;6216425;23;20016;-83
2024/01/29 13:32:20;;;;;;;19.35;12.23;;;8.90;99.90;;;;;;6189399;23;20012;-83
2024/01/29 13:34:46;;;;;;;18.13;11.32;;;9.00;99.90;;;;;;6189620;23;20017;-84
2024/01/29 13:37:12;;;;;;;20.23;11.55;;;9.00;99.90;;;;;;6189689;23;20015;-82
2024/01/29 13:39:37;;;;;;;18.65;12.05;;;9.00;99.90;;;;;;6216110;23;20013;-84
2024/01/29 13:42:03;;;;;;;20.92;11.82;;;9.10;99.90;;;;;;6189593;23;20052;-83
2024/01/29 13:44:29;;;;;;;23.15;11.95;;;9.10;99.90;;;;;;6189596;23;20512;-84
2024/01/29 13:46:55;;;;;;;21.02;12.57;;;9.20;99.90;;;;;;6189448;23;20021;-83
2024/01/29 13:49:20;;;;;;;19.50;12.32;;;9.20;99.90;;;;;;6189470;23;20020;-85
2024/01/29 13:51:46;;;;;;;21.80;12.55;;;9.20;99.90;;;;;;6216128;23;20009;-83
2024/01/29 13:54:12;;;;;;;22.98;12.38;;;9.30;99.90;;;;;;6189738;23;20016;-82
2024/01/29 13:56:38;;;;;;;26.33;14.25;;;9.30;99.90;;;;;;6189615;23;20016;-84
2024/01/29 13:59:04;;;;;;;23.63;13.38;;;9.40;99.90;;;;;;6189701;23;20442;-83
2024/01/29 14:01:30;;;;;;;24.70;13.20;;;9.50;99.90;;;;;;6216250;23;20016;-83
2024/01/29 14:03:56;;;;;;;31.63;13.98;;;9.50;99.90;;;;;;6219184;23;20096;-82
2024/01/29 14:06:22;;;;;;;23.92;13.07;;;9.60;99.90;;;;;;6197317;23;20017;-81
2024/01/29 14:08:48;;;;;;;21.65;13.30;;;9.60;99.90;;;;;;6193369;23;20296;-79
2024/01/29 14:11:14;;;;;;;24.27;13.43;;;9.70;99.90;;;;;;6215892;23;20103;-86
2024/01/29 14:13:39;;;;;;;23.65;13.27;;;9.70;99.90;;;;;;6216396;23;20013;-82
2024/01/29 14:16:05;;;;;;;21.60;13.25;;;9.70;99.90;;;;;;6216778;23;20012;-82
2024/01/29 14:18:31;;;;;;;20.65;12.63;;;9.70;99.90;;;;;;6216933;23;20035;-82
2024/01/29 14:20:57;;;;;;;21.08;12.70;;;9.70;99.90;;;;;;6214560;23;20380;-82
2024/01/29 14:23:23;;;;;;;23.77;12.77;;;9.70;99.90;;;;;;6216586;23;20032;-81
2024/01/29 14:25:49;;;;;;;23.55;13.60;;;9.70;99.90;;;;;;6189964;23;20012;-83
2024/01/29 14:28:16;;;;;;;21.80;12.98;;;9.70;99.90;;;;;;6189640;23;20019;-82
2024/01/29 14:30:45;;;;;;;25.13;13.07;;;9.70;99.90;;;;;;6218180;23;20032;-81
2024/01/29 14:33:11;;;;;;;20.60;12.68;;;9.70;99.90;;;;;;6191312;23;20048;-82
2024/01/29 14:35:38;;;;;;;23.58;13.15;;;9.80;99.90;;;;;;6191074;23;20462;-83
2024/01/29 14:38:10;;;;;;;25.92;13.07;;;9.70;99.90;;;;;;6191519;23;20021;-81
2024/01/29 14:40:39;;;;;;;21.88;13.13;;;9.70;99.90;;;;;;6217907;23;20036;-82
2024/01/29 14:43:09;;;;;;;20.98;13.25;;;9.60;99.90;;;;;;6217905;23;20034;-82
2024/01/29 14:45:41;;;;;;;24.27;14.52;;;9.60;99.90;;;;;;6217959;23;20071;-83
2024/01/29 14:48:09;;;;;;;20.75;12.57;;;9.60;99.90;;;;;;6218011;23;20056;-82
2024/01/29 14:50:35;;;;;;;20.15;12.80;;;9.60;99.90;;;;;;6217999;23;20020;-82
2024/01/29 14:53:03;;;;;;;18.58;12.18;;;9.60;99.90;;;;;;6217916;23;20469;-83
2024/01/29 14:55:29;;;;;;;23.35;12.88;;;9.60;99.90;;;;;;6191158;23;20017;-83
2024/01/29 14:57:55;;;;;;;26.33;13.05;;;9.50;99.90;;;;;;6190924;23;20047;-83
2024/01/29 15:00:21;;;;;;;23.50;14.18;;;9.50;99.90;;;;;;6217736;23;20040;-82
2024/01/29 15:02:47;;;;;;;25.30;14.30;;;9.50;99.90;;;;;;6190991;23;20071;-83
2024/01/29 15:05:12;;;;;;;25.25;13.85;;;9.50;99.90;;;;;;6191073;23;20059;-82
2024/01/29 15:07:41;;;;;;;20.85;13.30;;;9.40;99.90;;;;;;6190839;23;20020;-82
2024/01/29 15:10:08;;;;;;;20.20;12.48;;;9.40;99.90;;;;;;6217681;23;20512;-81
2024/01/29 15:12:40;;;;;;;22.98;13.00;;;9.40;99.90;;;;;;6217562;23;20067;-82
2024/01/29 15:15:07;;;;;;;24.20;13.48;;;9.30;99.90;;;;;;6217898;23;20032;-82
2024/01/29 15:17:33;;;;;;;19.92;12.20;;;9.30;99.90;;;;;;6191092;23;20016;-82
2024/01/29 15:20:00;;;;;;;19.23;12.43;;;9.30;99.90;;;;;;6217598;23;20055;-83
2024/01/29 15:22:27;;;;;;;23.38;12.40;;;9.20;99.90;;;;;;6217522;23;20017;-82
2024/01/29 15:24:53;;;;;;;19.95;13.00;;;9.20;99.90;;;;;;6190794;23;20019;-83
2024/01/29 15:27:19;;;;;;;22.08;13.02;;;9.20;99.90;;;;;;6217252;23;20016;-82
2024/01/29 15:29:46;;;;;;;23.52;13.40;;;9.10;99.90;;;;;;6191617;23;20091;-83
2024/01/29 15:32:11;;;;;;;20.23;12.40;;;9.10;99.90;;;;;;6217477;23;20059;-81
2024/01/29 15:34:47;;;;;;;25.25;12.73;;;9.10;99.90;;;;;;6217715;23;20450;-84
2024/01/29 15:37:14;;;;;;;21.35;12.27;;;9.00;99.90;;;;;;6215887;23;20019;-83
2024/01/29 15:39:40;;;;;;;20.77;13.57;;;9.00;99.90;;;;;;6217790;23;20009;-83
2024/01/29 15:42:08;;;;;;;21.15;13.15;;;9.00;99.90;;;;;;6190209;23;20055;-83
2024/01/29 15:44:34;;;;;;;25.25;13.38;;;8.90;99.90;;;;;;6215452;23;20024;-82
2024/01/29 15:47:00;;;;;;;22.92;13.48;;;8.90;99.90;;;;;;6217720;23;20013;-82
2024/01/29 15:49:26;;;;;;;22.90;12.57;;;8.80;99.90;;;;;;6217480;23;20008;-82
2024/01/29 15:51:52;;;;;;;23.90;13.75;;;8.90;99.90;;;;;;6217269;23;20338;-82
2024/01/29 15:54:18;;;;;;;23.05;13.68;;;8.90;99.90;;;;;;6190317;23;20020;-83
2024/01/29 15:56:43;;;;;;;25.83;14.00;;;8.80;99.90;;;;;;6190496;23;20377;-83
2024/01/29 15:59:09;;;;;;;27.05;15.25;;;8.80;99.90;;;;;;6190379;23;20039;-83
2024/01/29 16:01:34;;;;;;;25.73;14.90;;;8.70;99.90;;;;;;6190208;23;20024;-82
2024/01/29 16:04:01;;;;;;;25.63;14.48;;;8.70;99.90;;;;;;6216944;23;20005;-81
2024/01/29 16:06:27;;;;;;;22.30;14.05;;;8.70;99.90;;;;;;6216660;23;20040;-82
2024/01/29 16:08:53;;;;;;;27.88;14.65;;;8.60;99.90;;;;;;6217062;23;20013;-83
2024/01/29 16:11:19;;;;;;;22.13;13.98;;;8.60;99.90;;;;;;6190282;23;20009;-82
2024/01/29 16:13:44;;;;;;;28.63;15.10;;;8.60;99.90;;;;;;6217059;23;20084;-82
2024/01/29 16:16:10;;;;;;;25.10;14.15;;;8.70;99.90;;;;;;6190342;23;20024;-81
2024/01/29 16:18:36;;;;;;;25.30;14.68;;;8.60;99.90;;;;;;6217034;23;20086;-83
2024/01/29 16:21:02;;;;;;;25.92;14.20;;;8.60;99.90;;;;;;6217009;23;20373;-82
2024/01/29 16:23:28;;;;;;;24.25;14.52;;;8.60;99.90;;;;;;6192767;23;20091;-82
2024/01/29 16:25:54;;;;;;;23.77;14.35;;;8.60;99.90;;;;;;6192459;23;20021;-81
2024/01/29 16:28:20;;;;;;;29.67;15.57;;;8.60;99.90;;;;;;6217943;23;20063;-84
2024/01/29 16:30:49;;;;;;;24.63;15.20;;;8.60;99.90;;;;;;6196720;23;20427;-82
2024/01/29 16:33:15;;;;;;;31.35;15.30;;;8.60;99.90;;;;;;6227023;23;20461;-82
2024/01/29 16:35:41;;;;;;;29.42;15.50;;;8.50;99.90;;;;;;6228381;23;20005;-81
2024/01/29 16:38:06;;;;;;;29.05;15.20;;;8.40;99.90;;;;;;6223315;23;20020;-82
2024/01/29 16:40:33;;;;;;;23.20;14.10;;;8.50;99.90;;;;;;6220544;23;20013;-82